createdAt,value
2018-05-09T00:02:05.150Z,14.50
2018-05-09T00:04:37.869Z,14.50
2018-05-09T00:07:10.446Z,14.50
2018-05-09T00:09:43.546Z,14.30
2018-05-09T00:12:16.201Z,14.30
2018-05-09T00:14:49.440Z,14.30
2018-05-09T00:17:22.530Z,14.20
2018-05-09T00:19:55.118Z,14.20
2018-05-09T00:22:28.519Z,14.20
2018-05-09T00:25:01.847Z,14.10
2018-05-09T00:27:35.961Z,14.00
2018-05-09T00:30:09.291Z,14.00
2018-05-09T00:32:41.896Z,14.00
2018-05-09T00:35:14.294Z,14.00
2018-05-09T00:37:47.545Z,13.90
2018-05-09T00:40:20.190Z,13.90
2018-05-09T00:42:52.682Z,13.90
2018-05-09T00:45:25.972Z,13.90
2018-05-09T00:47:58.412Z,13.90
2018-05-09T00:50:30.798Z,13.90
2018-05-09T00:53:03.316Z,13.90
2018-05-09T00:55:35.710Z,13.90
2018-05-09T00:58:08.183Z,13.90
2018-05-09T01:00:41.310Z,13.80
2018-05-09T01:03:14.096Z,13.80
2018-05-09T01:05:46.572Z,13.90
2018-05-09T01:08:18.993Z,13.80
2018-05-09T01:10:51.464Z,13.80
2018-05-09T01:13:24.837Z,13.80
2018-05-09T01:15:57.208Z,13.80
2018-05-09T01:18:30.454Z,13.80
2018-05-09T01:21:03.815Z,13.80
2018-05-09T01:23:36.502Z,13.70
2018-05-09T01:26:09.752Z,13.70
2018-05-09T01:28:42.177Z,13.60
2018-05-09T01:31:14.618Z,13.60
2018-05-09T01:33:47.196Z,13.50
2018-05-09T01:36:19.626Z,13.50
2018-05-09T01:38:52.066Z,13.40
2018-05-09T01:41:25.281Z,13.30
2018-05-09T01:43:58.782Z,13.20
2018-05-09T01:46:32.013Z,13.20
2018-05-09T01:49:04.695Z,13.20
2018-05-09T01:51:38.007Z,13.10
2018-05-09T01:54:10.537Z,13.00
2018-05-09T01:56:42.974Z,13.00
2018-05-09T01:59:15.588Z,12.90
2018-05-09T02:01:49.690Z,12.80
2018-05-09T02:04:23.091Z,12.80
2018-05-09T02:06:55.722Z,12.70
2018-05-09T02:09:28.161Z,12.70
2018-05-09T02:12:01.465Z,12.60
2018-05-09T02:14:34.078Z,12.60
2018-05-09T02:17:06.553Z,12.60
2018-05-09T02:19:39.909Z,12.50
2018-05-09T02:22:12.409Z,12.40
2018-05-09T02:24:44.975Z,12.40
2018-05-09T02:27:17.334Z,12.40
2018-05-09T02:29:49.768Z,12.30
2018-05-09T02:32:22.135Z,12.30
2018-05-09T02:34:54.633Z,12.20
2018-05-09T02:37:27.066Z,12.20
2018-05-09T02:39:59.556Z,12.20
2018-05-09T02:42:31.973Z,12.20
2018-05-09T02:45:05.329Z,12.20
2018-05-09T02:47:37.828Z,12.10
2018-05-09T02:50:10.285Z,12.10
2018-05-09T02:52:43.784Z,12.00
2018-05-09T02:55:17.200Z,12.00
2018-05-09T02:57:51.206Z,11.90
2018-05-09T03:00:23.836Z,11.90
2018-05-09T03:02:57.818Z,11.90
2018-05-09T03:05:30.530Z,11.80
2018-05-09T03:08:02.888Z,11.90
2018-05-09T03:10:35.311Z,11.80
2018-05-09T03:13:08.527Z,11.80
2018-05-09T03:15:41.300Z,11.80
2018-05-09T03:18:13.808Z,11.80
2018-05-09T03:20:47.376Z,11.80
2018-05-09T03:23:20.519Z,11.80
2018-05-09T03:25:53.746Z,11.80
2018-05-09T03:28:26.301Z,11.80
2018-05-09T03:30:59.569Z,11.80
2018-05-09T03:33:32.125Z,11.80
2018-05-09T03:36:04.684Z,11.80
2018-05-09T03:38:37.918Z,11.80
2018-05-09T03:41:10.629Z,11.80
2018-05-09T03:43:43.890Z,11.80
2018-05-09T03:46:17.189Z,11.80
2018-05-09T03:48:49.886Z,11.80
2018-05-09T03:51:22.393Z,11.90
2018-05-09T03:53:55.688Z,11.80
2018-05-09T03:56:28.180Z,11.80
2018-05-09T03:59:01.503Z,11.80
2018-05-09T04:01:48.752Z,11.70
2018-05-09T04:04:40.220Z,11.70
2018-05-09T04:07:32.402Z,11.70
2018-05-09T04:10:04.968Z,11.60
2018-05-09T04:12:38.066Z,11.70
2018-05-09T04:15:17.565Z,11.70
2018-05-09T04:17:49.905Z,11.70
2018-05-09T04:20:22.307Z,11.70
2018-05-09T04:22:54.663Z,11.80
2018-05-09T04:25:27.061Z,11.90
2018-05-09T04:27:59.537Z,11.90
2018-05-09T04:30:32.813Z,12.00
2018-05-09T04:33:05.539Z,12.10
2018-05-09T04:35:38.756Z,12.30
2018-05-09T04:38:11.401Z,12.30
2018-05-09T04:40:44.814Z,12.30
2018-05-09T04:43:17.227Z,12.40
2018-05-09T04:45:51.316Z,12.60
2018-05-09T04:48:23.951Z,12.60
2018-05-09T04:50:56.270Z,12.70
2018-05-09T04:53:29.611Z,12.80
2018-05-09T04:56:02.012Z,13.00
2018-05-09T04:58:34.427Z,13.10
2018-05-09T05:01:08.489Z,13.30
2018-05-09T05:03:41.175Z,13.30
2018-05-09T05:06:14.661Z,13.50
2018-05-09T05:08:47.915Z,13.60
2018-05-09T05:11:21.130Z,13.70
2018-05-09T05:13:54.311Z,14.10
2018-05-09T05:16:26.999Z,14.10
2018-05-09T05:18:59.496Z,14.40
2018-05-09T05:21:31.863Z,14.80
2018-05-09T05:24:04.373Z,15.40
2018-05-09T05:26:38.386Z,17.20
2018-05-09T05:29:11.021Z,17.20
2018-05-09T05:31:43.477Z,18.30
2018-05-09T05:34:16.023Z,19.30
2018-05-09T05:36:48.486Z,19.90
2018-05-09T05:39:21.142Z,20.70
2018-05-09T05:41:54.414Z,21.30
2018-05-09T05:44:26.752Z,21.80
2018-05-09T05:47:00.263Z,22.50
2018-05-09T05:49:32.675Z,22.50
2018-05-09T05:52:06.049Z,22.80
2018-05-09T05:54:38.615Z,23.00
2018-05-09T05:57:11.035Z,23.10
2018-05-09T05:59:43.470Z,23.50
2018-05-09T06:02:16.621Z,24.10
2018-05-09T06:04:49.496Z,24.10
2018-05-09T06:07:21.937Z,24.20
2018-05-09T06:09:56.181Z,24.60
2018-05-09T06:12:28.805Z,24.50
2018-05-09T06:15:02.194Z,24.80
2018-05-09T06:17:35.693Z,24.30
2018-05-09T06:20:08.111Z,24.30
2018-05-09T06:22:41.564Z,24.10
2018-05-09T06:25:14.939Z,23.90
2018-05-09T06:27:48.337Z,23.50
2018-05-09T06:30:21.829Z,23.40
2018-05-09T06:32:54.371Z,23.40
2018-05-09T06:35:26.745Z,23.50
2018-05-09T06:37:59.865Z,23.30
2018-05-09T06:40:32.755Z,23.30
2018-05-09T06:43:05.751Z,23.40
2018-05-09T06:45:38.545Z,23.70
2018-05-09T06:48:11.815Z,23.90
2018-05-09T06:50:44.312Z,24.10
2018-05-09T06:53:16.724Z,24.20
2018-05-09T06:55:49.307Z,24.40
2018-05-09T06:58:21.640Z,24.40
2018-05-09T07:00:54.337Z,24.20
2018-05-09T07:03:27.611Z,24.10
2018-05-09T07:06:00.916Z,24.20
2018-05-09T07:08:34.259Z,24.40
2018-05-09T07:11:07.350Z,24.50
2018-05-09T07:13:39.907Z,24.50
2018-05-09T07:16:13.258Z,24.40
2018-05-09T07:18:46.385Z,24.60
2018-05-09T07:21:20.415Z,24.50
2018-05-09T07:23:53.013Z,24.50
2018-05-09T07:26:31.757Z,24.80
2018-05-09T07:29:05.726Z,25.30
2018-05-09T07:31:38.161Z,25.20
2018-05-09T07:34:11.463Z,25.40
2018-05-09T07:36:45.333Z,25.20
2018-05-09T07:39:18.690Z,24.70
2018-05-09T07:41:52.157Z,24.40
2018-05-09T07:44:25.332Z,24.20
2018-05-09T07:46:57.854Z,24.20
2018-05-09T07:49:31.185Z,24.40
2018-05-09T07:52:03.625Z,24.40
2018-05-09T07:54:36.036Z,24.30
2018-05-09T07:57:09.216Z,24.10
2018-05-09T07:59:42.643Z,24.10
2018-05-09T08:02:15.031Z,24.20
2018-05-09T08:04:48.411Z,24.30
2018-05-09T08:07:21.665Z,24.70
2018-05-09T08:09:54.286Z,24.70
2018-05-09T08:12:27.466Z,24.90
2018-05-09T08:15:00.809Z,24.90
2018-05-09T08:17:33.664Z,24.90
2018-05-09T08:20:06.885Z,24.90
2018-05-09T08:22:39.359Z,25.00
2018-05-09T08:25:13.493Z,25.00
2018-05-09T08:27:46.090Z,24.90
2018-05-09T08:30:18.591Z,25.20
2018-05-09T08:32:51.052Z,25.00
2018-05-09T08:35:23.433Z,24.70
2018-05-09T08:37:57.564Z,24.50
2018-05-09T08:40:29.961Z,24.50
2018-05-09T08:43:03.087Z,24.40
2018-05-09T08:45:35.565Z,24.50
2018-05-09T08:48:08.894Z,24.90
2018-05-09T08:50:42.106Z,25.20
2018-05-09T08:53:15.499Z,25.50
2018-05-09T08:55:48.868Z,25.70
2018-05-09T08:58:22.252Z,25.90
2018-05-09T09:00:55.508Z,26.00
2018-05-09T09:03:28.901Z,26.20
2018-05-09T09:06:03.079Z,26.50
2018-05-09T09:08:36.331Z,26.50
2018-05-09T09:11:08.981Z,26.50
2018-05-09T09:13:41.328Z,26.60
2018-05-09T09:16:13.778Z,26.70
2018-05-09T09:18:46.347Z,26.70
2018-05-09T09:21:19.538Z,26.20
2018-05-09T09:23:52.171Z,26.20
2018-05-09T09:26:25.237Z,26.20
2018-05-09T09:28:58.535Z,26.20
2018-05-09T09:31:32.645Z,26.20
2018-05-09T09:34:05.284Z,26.20
2018-05-09T09:36:38.413Z,26.30
2018-05-09T09:39:11.720Z,26.10
2018-05-09T09:41:44.161Z,26.10
2018-05-09T09:44:16.678Z,26.00
2018-05-09T09:46:50.026Z,25.80
2018-05-09T09:49:22.466Z,25.80
2018-05-09T09:51:55.713Z,25.80
2018-05-09T09:54:29.084Z,25.80
2018-05-09T09:57:03.127Z,25.70
2018-05-09T09:59:35.857Z,25.70
2018-05-09T10:02:08.277Z,25.70
2018-05-09T10:04:40.704Z,25.90
2018-05-09T10:07:14.048Z,26.00
2018-05-09T10:09:46.530Z,26.20
2018-05-09T10:12:19.816Z,26.40
2018-05-09T10:14:52.264Z,26.30
2018-05-09T10:17:25.521Z,26.50
2018-05-09T10:19:58.018Z,26.40
2018-05-09T10:22:32.090Z,26.60
2018-05-09T10:25:04.825Z,26.60
2018-05-09T10:27:38.195Z,26.70
2018-05-09T10:30:10.617Z,26.80
2018-05-09T10:32:43.831Z,26.60
2018-05-09T10:35:16.541Z,26.60
2018-05-09T10:37:48.957Z,26.60
2018-05-09T10:40:21.456Z,26.50
2018-05-09T10:42:54.082Z,26.40
2018-05-09T10:45:26.626Z,26.00
2018-05-09T10:48:00.694Z,25.30
2018-05-09T10:50:33.356Z,25.30
2018-05-09T10:53:05.810Z,25.20
2018-05-09T10:55:38.440Z,24.60
2018-05-09T10:58:11.767Z,24.00
2018-05-09T11:00:44.114Z,23.50
2018-05-09T11:03:17.313Z,23.30
2018-05-09T11:05:49.931Z,23.30
2018-05-09T11:08:23.080Z,23.50
2018-05-09T11:10:56.095Z,23.60
2018-05-09T11:13:29.417Z,23.40
2018-05-09T11:16:03.687Z,23.20
2018-05-09T11:18:36.231Z,23.10
2018-05-09T11:21:08.673Z,22.80
2018-05-09T11:23:41.914Z,22.40
2018-05-09T11:26:14.667Z,22.40
2018-05-09T11:28:47.372Z,22.30
2018-05-09T11:31:20.014Z,22.30
2018-05-09T11:33:52.583Z,22.40
2018-05-09T11:36:25.343Z,22.50
2018-05-09T11:38:58.730Z,22.60
2018-05-09T11:41:31.470Z,22.60
2018-05-09T11:44:04.684Z,22.50
2018-05-09T11:46:37.286Z,22.60
2018-05-09T11:49:09.764Z,22.70
2018-05-09T11:51:42.320Z,22.60
2018-05-09T11:54:14.966Z,22.50
2018-05-09T11:56:47.740Z,22.60
2018-05-09T11:59:20.266Z,22.60
2018-05-09T12:01:52.931Z,22.60
2018-05-09T12:04:26.137Z,22.50
2018-05-09T12:06:58.693Z,22.40
2018-05-09T12:09:31.269Z,22.40
2018-05-09T12:12:04.512Z,22.40
2018-05-09T12:14:37.250Z,22.40
2018-05-09T12:17:10.641Z,22.40
2018-05-09T12:19:43.078Z,22.40
2018-05-09T12:22:15.502Z,22.40
2018-05-09T12:24:47.903Z,22.30
2018-05-09T12:27:22.147Z,22.10
2018-05-09T12:29:55.473Z,22.10
2018-05-09T12:32:28.386Z,22.00
2018-05-09T12:35:01.682Z,22.00
2018-05-09T12:37:34.920Z,21.90
2018-05-09T12:40:07.767Z,21.80
2018-05-09T12:42:41.304Z,21.80
2018-05-09T12:45:15.346Z,21.70
2018-05-09T12:47:48.163Z,21.60
2018-05-09T12:50:20.771Z,21.60
2018-05-09T12:52:53.394Z,21.70
2018-05-09T12:55:26.221Z,21.60
2018-05-09T12:57:59.717Z,21.60
2018-05-09T13:00:32.437Z,21.60
2018-05-09T13:03:05.065Z,21.60
2018-05-09T13:05:37.480Z,21.50
2018-05-09T13:08:10.853Z,21.50
2018-05-09T13:10:44.451Z,21.50
2018-05-09T13:13:17.205Z,21.50
2018-05-09T13:15:49.466Z,21.50
2018-05-09T13:18:21.899Z,21.50
2018-05-09T13:20:55.889Z,21.50
2018-05-09T13:23:28.497Z,21.50
2018-05-09T13:26:00.949Z,21.50
2018-05-09T13:28:35.074Z,21.40
2018-05-09T13:31:07.920Z,21.30
2018-05-09T13:33:40.409Z,21.20
2018-05-09T13:36:12.808Z,21.00
2018-05-09T13:38:45.279Z,20.80
2018-05-09T13:41:18.344Z,20.40
2018-05-09T13:43:50.929Z,20.40
2018-05-09T13:46:23.422Z,20.20
2018-05-09T13:48:56.649Z,19.90
2018-05-09T13:51:29.434Z,19.90
2018-05-09T13:54:02.092Z,19.70
2018-05-09T13:56:35.391Z,19.30
2018-05-09T13:59:08.164Z,19.30
2018-05-09T14:01:41.444Z,18.90
2018-05-09T14:04:14.171Z,18.90
2018-05-09T14:06:46.904Z,18.70
2018-05-09T14:09:20.200Z,18.30
2018-05-09T14:11:52.858Z,18.40
2018-05-09T14:14:25.421Z,18.20
2018-05-09T14:16:57.872Z,18.10
2018-05-09T14:19:31.161Z,18.10
2018-05-09T14:22:03.854Z,18.00
2018-05-09T14:24:36.514Z,18.10
2018-05-09T14:27:10.216Z,18.20
2018-05-09T14:29:43.346Z,18.30
2018-05-09T14:32:15.785Z,18.40
2018-05-09T14:34:48.216Z,18.50
2018-05-09T14:37:21.434Z,18.80
2018-05-09T14:39:54.054Z,18.80
2018-05-09T14:42:26.426Z,18.90
2018-05-09T14:44:59.659Z,19.20
2018-05-09T14:47:32.193Z,19.20
2018-05-09T14:50:05.364Z,19.50
2018-05-09T14:52:37.891Z,19.50
2018-05-09T14:55:10.276Z,19.60
2018-05-09T14:57:43.621Z,19.60
2018-05-09T15:00:16.421Z,19.60
2018-05-09T15:02:49.702Z,19.70
2018-05-09T15:05:23.173Z,19.80
2018-05-09T15:07:56.051Z,19.80
2018-05-09T15:10:28.861Z,19.80
2018-05-09T15:13:01.608Z,19.90
2018-05-09T15:15:34.124Z,19.90
2018-05-09T15:18:06.615Z,20.00
2018-05-09T15:20:39.324Z,20.00
2018-05-09T15:23:12.666Z,20.00
2018-05-09T15:25:46.088Z,20.10
2018-05-09T15:28:18.935Z,20.10
2018-05-09T15:30:51.571Z,20.10
2018-05-09T15:33:24.128Z,20.10
2018-05-09T15:35:56.772Z,20.10
2018-05-09T15:38:30.846Z,20.10
2018-05-09T15:41:03.719Z,20.10
2018-05-09T15:43:37.031Z,20.20
2018-05-09T15:46:11.235Z,20.20
2018-05-09T15:48:44.866Z,20.20
2018-05-09T15:51:17.280Z,20.20
2018-05-09T15:53:50.465Z,20.30
2018-05-09T15:56:23.123Z,20.20
2018-05-09T15:58:57.131Z,20.30
2018-05-09T16:01:29.782Z,20.20
2018-05-09T16:04:03.219Z,20.30
2018-05-09T16:06:36.345Z,20.20
2018-05-09T16:09:08.994Z,20.20
2018-05-09T16:11:41.508Z,20.20
2018-05-09T16:14:14.764Z,20.10
2018-05-09T16:16:47.553Z,20.10
2018-05-09T16:19:20.005Z,20.10
2018-05-09T16:21:53.220Z,19.90
2018-05-09T16:24:26.889Z,19.90
2018-05-09T16:26:59.545Z,19.90
2018-05-09T16:29:32.780Z,19.90
2018-05-09T16:32:05.581Z,19.80
2018-05-09T16:34:38.284Z,19.80
2018-05-09T16:37:11.578Z,19.70
2018-05-09T16:39:44.329Z,19.70
2018-05-09T16:42:16.875Z,19.70
2018-05-09T16:44:49.596Z,19.60
2018-05-09T16:47:22.206Z,19.60
2018-05-09T16:49:55.348Z,19.60
2018-05-09T16:52:27.997Z,19.60
2018-05-09T16:55:00.445Z,19.60
2018-05-09T16:57:32.907Z,19.60
2018-05-09T17:00:06.115Z,19.50
2018-05-09T17:02:39.381Z,19.50
2018-05-09T17:05:11.958Z,19.50
2018-05-09T17:07:44.389Z,19.50
2018-05-09T17:10:17.707Z,19.40
2018-05-09T17:12:51.053Z,19.40
2018-05-09T17:15:24.308Z,19.30
2018-05-09T17:17:57.099Z,19.40
2018-05-09T17:20:29.560Z,19.40
2018-05-09T17:23:02.815Z,19.30
2018-05-09T17:25:35.528Z,19.30
2018-05-09T17:28:08.273Z,19.30
2018-05-09T17:30:40.804Z,19.30
2018-05-09T17:33:13.338Z,19.30
2018-05-09T17:35:46.042Z,19.40
2018-05-09T17:38:20.224Z,19.50
2018-05-09T17:40:52.750Z,19.50
2018-05-09T17:43:25.443Z,19.60
2018-05-09T17:45:58.637Z,19.70
2018-05-09T17:48:31.249Z,19.80
2018-05-09T17:51:04.423Z,19.90
2018-05-09T17:53:38.299Z,20.10
2018-05-09T17:56:11.298Z,20.10
2018-05-09T17:58:43.923Z,20.10
2018-05-09T18:01:17.234Z,20.20
2018-05-09T18:03:50.514Z,20.30
2018-05-09T18:06:23.695Z,20.40
2018-05-09T18:08:57.168Z,20.40
2018-05-09T18:11:30.450Z,20.40
2018-05-09T18:14:03.950Z,20.30
2018-05-09T18:16:37.182Z,20.30
2018-05-09T18:19:09.627Z,20.20
2018-05-09T18:21:43.008Z,20.10
2018-05-09T18:24:16.315Z,19.90
2018-05-09T18:26:49.809Z,19.90
2018-05-09T18:29:29.151Z,19.80
2018-05-09T18:32:01.835Z,19.60
2018-05-09T18:34:35.105Z,19.30
2018-05-09T18:37:07.878Z,19.30
2018-05-09T18:39:41.327Z,19.20
2018-05-09T18:42:14.935Z,19.10
2018-05-09T18:44:47.744Z,19.10
2018-05-09T18:47:20.195Z,19.00
2018-05-09T18:49:52.930Z,18.90
2018-05-09T18:52:26.267Z,18.70
2018-05-09T18:54:59.163Z,18.70
2018-05-09T18:57:31.701Z,18.70
2018-05-09T19:00:04.627Z,18.50
2018-05-09T19:02:37.784Z,18.40
2018-05-09T19:05:10.511Z,18.30
2018-05-09T19:07:43.760Z,18.20
2018-05-09T19:10:16.234Z,18.10
2018-05-09T19:12:49.524Z,18.00
2018-05-09T19:15:22.909Z,17.90
2018-05-09T19:17:55.402Z,17.90
2018-05-09T19:20:28.931Z,17.80
2018-05-09T19:23:01.682Z,17.70
2018-05-09T19:25:34.087Z,17.60
2018-05-09T19:28:08.296Z,17.40
2018-05-09T19:30:42.117Z,17.30
2018-05-09T19:33:15.634Z,17.30
2018-05-09T19:35:49.302Z,17.30
2018-05-09T19:38:22.889Z,17.20
2018-05-09T19:40:56.184Z,17.10
2018-05-09T19:43:30.424Z,17.00
2018-05-09T19:46:03.803Z,17.00
2018-05-09T19:48:37.438Z,16.90
2018-05-09T19:51:11.337Z,16.80
2018-05-09T19:53:44.400Z,16.70
2018-05-09T19:56:16.822Z,16.60
2018-05-09T19:58:50.272Z,16.60
2018-05-09T20:01:23.557Z,16.40
2018-05-09T20:03:57.010Z,16.40
2018-05-09T20:06:29.760Z,16.30
2018-05-09T20:09:03.220Z,16.20
2018-05-09T20:11:36.515Z,16.20
2018-05-09T20:14:08.954Z,16.10
2018-05-09T20:16:42.206Z,15.90
2018-05-09T20:19:14.935Z,15.90
2018-05-09T20:21:47.398Z,15.80
2018-05-09T20:24:21.716Z,15.60
2018-05-09T20:26:54.944Z,15.60
2018-05-09T20:29:27.692Z,15.50
2018-05-09T20:32:20.290Z,15.50
2018-05-09T20:34:54.372Z,15.40
2018-05-09T20:37:26.961Z,15.30
2018-05-09T20:39:59.413Z,15.30
2018-05-09T20:42:31.875Z,15.20
2018-05-09T20:45:05.122Z,15.10
2018-05-09T20:47:37.690Z,15.10
2018-05-09T20:50:11.659Z,15.00
2018-05-09T20:52:45.046Z,14.90
2018-05-09T20:55:26.545Z,14.90
2018-05-09T20:57:59.121Z,14.90
2018-05-09T21:00:32.417Z,14.80
2018-05-09T21:03:05.759Z,14.80
2018-05-09T21:05:38.380Z,14.70
2018-05-09T21:08:11.039Z,14.70
2018-05-09T21:10:44.202Z,14.60
2018-05-09T21:13:17.066Z,14.60
2018-05-09T21:15:49.593Z,14.50
2018-05-09T21:18:22.169Z,14.50
2018-05-09T21:20:56.356Z,14.40
2018-05-09T21:23:28.986Z,14.40
2018-05-09T21:26:01.579Z,14.40
2018-05-09T21:28:33.992Z,14.30
2018-05-09T21:31:06.469Z,14.30
2018-05-09T21:33:39.062Z,14.20
2018-05-09T21:36:12.500Z,14.20
2018-05-09T21:38:45.110Z,14.20
2018-05-09T21:41:18.421Z,14.10
2018-05-09T21:43:50.761Z,14.10
2018-05-09T21:46:23.090Z,14.10
2018-05-09T21:48:55.677Z,14.00
2018-05-09T21:51:29.066Z,14.00
2018-05-09T21:54:01.404Z,14.00
2018-05-09T21:56:33.731Z,14.00
2018-05-09T21:59:06.168Z,14.00
2018-05-09T22:01:38.480Z,14.00
2018-05-09T22:04:17.980Z,13.90
2018-05-09T22:06:51.363Z,13.90
2018-05-09T22:09:24.347Z,13.90
2018-05-09T22:11:56.954Z,13.90
2018-05-09T22:14:29.546Z,13.90
2018-05-09T22:17:02.917Z,13.90
2018-05-09T22:19:35.658Z,13.90
2018-05-09T22:22:08.387Z,13.90
2018-05-09T22:24:40.861Z,13.90
2018-05-09T22:27:14.179Z,13.90
2018-05-09T22:29:47.312Z,13.80
2018-05-09T22:32:20.004Z,13.80
2018-05-09T22:34:52.552Z,13.80
2018-05-09T22:37:25.162Z,13.80
2018-05-09T22:39:58.422Z,13.70
2018-05-09T22:42:31.125Z,13.70
2018-05-09T22:45:04.704Z,13.70
2018-05-09T22:47:38.270Z,13.60
2018-05-09T22:50:11.814Z,13.60
2018-05-09T22:52:45.124Z,13.60
2018-05-09T22:55:17.754Z,13.60
2018-05-09T22:57:51.190Z,13.60
2018-05-09T23:00:24.597Z,13.50
2018-05-09T23:02:57.906Z,13.50
2018-05-09T23:05:30.436Z,13.50
2018-05-09T23:08:03.702Z,13.40
2018-05-09T23:10:36.275Z,13.40
2018-05-09T23:13:09.771Z,13.40
2018-05-09T23:15:43.143Z,13.30
2018-05-09T23:18:15.513Z,13.30
2018-05-09T23:20:48.107Z,13.20
2018-05-09T23:23:20.709Z,13.20
2018-05-09T23:25:54.199Z,13.20
2018-05-09T23:28:26.752Z,13.20
2018-05-09T23:31:00.131Z,13.10
2018-05-09T23:33:33.005Z,13.10
2018-05-09T23:36:05.513Z,13.10
2018-05-09T23:38:38.957Z,13.00
2018-05-09T23:41:11.800Z,13.00
2018-05-09T23:43:46.041Z,13.00
2018-05-09T23:46:18.854Z,13.00
2018-05-09T23:48:52.096Z,13.00
2018-05-09T23:51:26.270Z,12.90
2018-05-09T23:53:58.983Z,12.90
2018-05-09T23:56:32.611Z,12.90
2018-05-09T23:59:05.961Z,12.90
